sensor_id;sensor_type;location;lat;lon;timestamp;noise_LAeq;noise_LA_min;noise_LA_max;noise_LA01;noise_LA95
72415;Laerm;60995;52.154;4.498;2023-11-22T00:01:06;44.02;35.90;55.94;;
72415;Laerm;60995;52.154;4.498;2023-11-22T00:03:22;41.94;35.65;56.14;;
72415;Laerm;60995;52.154;4.498;2023-11-22T00:05:40;41.03;35.76;49.68;;
72415;Laerm;60995;52.154;4.498;2023-11-22T00:07:56;43.22;35.26;55.96;;
72415;Laerm;60995;52.154;4.498;2023-11-22T00:10:13;41.76;35.94;55.48;;
72415;Laerm;60995;52.154;4.498;2023-11-22T00:12:29;40.76;35.62;51.00;;
72415;Laerm;60995;52.154;4.498;2023-11-22T00:14:52;40.63;34.58;49.98;;
72415;Laerm;60995;52.154;4.498;2023-11-22T00:17:08;42.16;34.85;52.67;;
72415;Laerm;60995;52.154;4.498;2023-11-22T00:19:24;40.74;35.45;53.54;;
72415;Laerm;60995;52.154;4.498;2023-11-22T00:21:40;42.95;36.58;53.78;;
72415;Laerm;60995;52.154;4.498;2023-11-22T00:23:57;43.14;36.47;51.20;;
72415;Laerm;60995;52.154;4.498;2023-11-22T00:26:13;42.47;35.95;52.74;;
72415;Laerm;60995;52.154;4.498;2023-11-22T00:28:31;42.85;35.50;52.50;;
72415;Laerm;60995;52.154;4.498;2023-11-22T00:30:47;42.61;35.58;52.93;;
72415;Laerm;60995;52.154;4.498;2023-11-22T00:33:04;40.38;35.14;49.40;;
72415;Laerm;60995;52.154;4.498;2023-11-22T00:35:20;44.78;35.16;56.22;;
72415;Laerm;60995;52.154;4.498;2023-11-22T00:37:37;40.35;34.22;55.19;;
72415;Laerm;60995;52.154;4.498;2023-11-22T00:39:53;40.12;34.26;48.73;;
72415;Laerm;60995;52.154;4.498;2023-11-22T00:42:09;41.74;35.12;52.24;;
72415;Laerm;60995;52.154;4.498;2023-11-22T00:44:25;40.32;34.59;53.46;;
72415;Laerm;60995;52.154;4.498;2023-11-22T00:46:42;40.54;35.06;49.53;;
72415;Laerm;60995;52.154;4.498;2023-11-22T00:48:58;42.64;35.09;54.22;;
72415;Laerm;60995;52.154;4.498;2023-11-22T00:51:14;42.02;35.23;52.23;;
72415;Laerm;60995;52.154;4.498;2023-11-22T00:53:31;41.09;35.03;48.47;;
72415;Laerm;60995;52.154;4.498;2023-11-22T00:55:47;41.84;35.01;52.82;;
72415;Laerm;60995;52.154;4.498;2023-11-22T00:58:03;42.88;35.12;52.75;;
72415;Laerm;60995;52.154;4.498;2023-11-22T01:00:20;43.78;34.74;56.01;;
72415;Laerm;60995;52.154;4.498;2023-11-22T01:02:37;48.29;34.79;68.86;;
72415;Laerm;60995;52.154;4.498;2023-11-22T01:04:54;43.40;35.25;54.81;;
72415;Laerm;60995;52.154;4.498;2023-11-22T01:07:10;41.31;34.93;51.76;;
72415;Laerm;60995;52.154;4.498;2023-11-22T01:09:26;40.61;34.29;48.63;;
72415;Laerm;60995;52.154;4.498;2023-11-22T01:11:44;39.76;34.07;48.69;;
72415;Laerm;60995;52.154;4.498;2023-11-22T01:14:01;43.42;35.19;53.52;;
72415;Laerm;60995;52.154;4.498;2023-11-22T01:16:18;39.95;34.40;52.23;;
72415;Laerm;60995;52.154;4.498;2023-11-22T01:18:34;41.11;34.73;47.86;;
72415;Laerm;60995;52.154;4.498;2023-11-22T01:20:51;40.07;34.00;48.49;;
72415;Laerm;60995;52.154;4.498;2023-11-22T01:23:08;39.90;34.23;50.13;;
72415;Laerm;60995;52.154;4.498;2023-11-22T01:25:24;41.17;34.33;64.54;;
72415;Laerm;60995;52.154;4.498;2023-11-22T01:27:40;43.16;34.61;55.65;;
72415;Laerm;60995;52.154;4.498;2023-11-22T01:29:57;39.99;34.67;55.91;;
72415;Laerm;60995;52.154;4.498;2023-11-22T01:32:13;40.93;34.17;50.42;;
72415;Laerm;60995;52.154;4.498;2023-11-22T01:34:29;39.80;34.42;47.63;;
72415;Laerm;60995;52.154;4.498;2023-11-22T01:36:50;39.95;34.64;48.44;;
72415;Laerm;60995;52.154;4.498;2023-11-22T01:39:06;41.01;34.63;50.30;;
72415;Laerm;60995;52.154;4.498;2023-11-22T01:41:22;40.07;34.58;48.33;;
72415;Laerm;60995;52.154;4.498;2023-11-22T01:43:39;41.29;34.13;50.13;;
72415;Laerm;60995;52.154;4.498;2023-11-22T01:45:57;42.56;34.42;51.02;;
72415;Laerm;60995;52.154;4.498;2023-11-22T01:48:14;42.49;34.29;51.61;;
72415;Laerm;60995;52.154;4.498;2023-11-22T01:50:30;40.43;34.48;48.80;;
72415;Laerm;60995;52.154;4.498;2023-11-22T01:52:47;40.45;34.35;48.49;;
72415;Laerm;60995;52.154;4.498;2023-11-22T01:55:04;40.45;34.60;54.09;;
72415;Laerm;60995;52.154;4.498;2023-11-22T01:57:21;41.60;34.34;51.80;;
72415;Laerm;60995;52.154;4.498;2023-11-22T01:59:39;40.07;34.33;51.22;;
72415;Laerm;60995;52.154;4.498;2023-11-22T02:01:55;40.48;34.16;51.19;;
72415;Laerm;60995;52.154;4.498;2023-11-22T02:04:12;41.61;34.45;51.43;;
72415;Laerm;60995;52.154;4.498;2023-11-22T02:06:29;41.59;34.54;51.63;;
72415;Laerm;60995;52.154;4.498;2023-11-22T02:08:47;40.96;34.47;49.18;;
72415;Laerm;60995;52.154;4.498;2023-11-22T02:11:04;40.42;34.66;47.72;;
72415;Laerm;60995;52.154;4.498;2023-11-22T02:13:20;40.29;34.80;48.44;;
72415;Laerm;60995;52.154;4.498;2023-11-22T02:15:37;40.72;34.09;50.28;;
72415;Laerm;60995;52.154;4.498;2023-11-22T02:17:54;40.70;34.37;49.11;;
72415;Laerm;60995;52.154;4.498;2023-11-22T02:20:11;39.78;34.13;49.87;;
72415;Laerm;60995;52.154;4.498;2023-11-22T02:22:27;39.74;34.37;53.12;;
72415;Laerm;60995;52.154;4.498;2023-11-22T02:24:43;45.64;37.28;58.13;;
72415;Laerm;60995;52.154;4.498;2023-11-22T02:27:00;39.80;34.32;49.24;;
72415;Laerm;60995;52.154;4.498;2023-11-22T02:29:16;39.80;34.25;48.08;;
72415;Laerm;60995;52.154;4.498;2023-11-22T02:31:34;39.72;34.14;49.25;;
72415;Laerm;60995;52.154;4.498;2023-11-22T02:33:50;39.66;33.96;47.93;;
72415;Laerm;60995;52.154;4.498;2023-11-22T02:36:07;39.73;33.99;49.04;;
72415;Laerm;60995;52.154;4.498;2023-11-22T02:38:23;40.43;34.13;53.60;;
72415;Laerm;60995;52.154;4.498;2023-11-22T02:40:43;39.41;33.82;48.96;;
72415;Laerm;60995;52.154;4.498;2023-11-22T02:43:00;39.54;33.93;47.64;;
72415;Laerm;60995;52.154;4.498;2023-11-22T02:45:27;39.85;34.12;49.39;;
72415;Laerm;60995;52.154;4.498;2023-11-22T02:47:45;39.85;34.07;48.58;;
72415;Laerm;60995;52.154;4.498;2023-11-22T02:50:02;39.69;34.21;47.81;;
72415;Laerm;60995;52.154;4.498;2023-11-22T02:52:21;39.69;33.92;47.99;;
72415;Laerm;60995;52.154;4.498;2023-11-22T02:54:42;39.78;34.04;49.47;;
72415;Laerm;60995;52.154;4.498;2023-11-22T02:56:59;43.33;34.22;56.19;;
72415;Laerm;60995;52.154;4.498;2023-11-22T02:59:16;42.00;34.04;52.69;;
72415;Laerm;60995;52.154;4.498;2023-11-22T03:01:32;39.63;34.25;53.15;;
72415;Laerm;60995;52.154;4.498;2023-11-22T03:03:49;40.43;34.19;50.89;;
72415;Laerm;60995;52.154;4.498;2023-11-22T03:06:05;40.37;34.70;52.46;;
72415;Laerm;60995;52.154;4.498;2023-11-22T03:08:21;39.77;34.82;53.97;;
72415;Laerm;60995;52.154;4.498;2023-11-22T03:10:38;39.83;34.30;48.40;;
72415;Laerm;60995;52.154;4.498;2023-11-22T03:12:54;39.84;34.39;50.78;;
72415;Laerm;60995;52.154;4.498;2023-11-22T03:15:10;41.70;34.58;50.87;;
72415;Laerm;60995;52.154;4.498;2023-11-22T03:17:28;39.94;34.57;51.53;;
72415;Laerm;60995;52.154;4.498;2023-11-22T03:19:44;40.06;34.56;50.49;;
72415;Laerm;60995;52.154;4.498;2023-11-22T03:22:02;40.49;34.54;48.31;;
72415;Laerm;60995;52.154;4.498;2023-11-22T03:24:19;40.23;35.32;49.37;;
72415;Laerm;60995;52.154;4.498;2023-11-22T03:26:35;41.57;36.15;48.06;;
72415;Laerm;60995;52.154;4.498;2023-11-22T03:28:51;43.09;36.82;50.81;;
72415;Laerm;60995;52.154;4.498;2023-11-22T03:31:08;42.38;35.91;53.03;;
72415;Laerm;60995;52.154;4.498;2023-11-22T03:33:24;41.22;35.74;49.26;;
72415;Laerm;60995;52.154;4.498;2023-11-22T03:35:41;41.86;35.61;50.93;;
72415;Laerm;60995;52.154;4.498;2023-11-22T03:37:57;41.14;35.57;49.59;;
72415;Laerm;60995;52.154;4.498;2023-11-22T03:40:13;41.60;36.16;51.88;;
72415;Laerm;60995;52.154;4.498;2023-11-22T03:42:30;43.77;35.70;53.51;;
72415;Laerm;60995;52.154;4.498;2023-11-22T03:44:46;40.62;35.23;47.88;;
72415;Laerm;60995;52.154;4.498;2023-11-22T03:47:02;41.15;35.62;53.29;;
72415;Laerm;60995;52.154;4.498;2023-11-22T03:49:19;41.23;35.82;54.09;;
72415;Laerm;60995;52.154;4.498;2023-11-22T03:51:38;41.63;35.82;51.48;;
72415;Laerm;60995;52.154;4.498;2023-11-22T03:53:54;41.56;35.79;50.19;;
72415;Laerm;60995;52.154;4.498;2023-11-22T03:56:11;41.30;35.37;48.73;;
72415;Laerm;60995;52.154;4.498;2023-11-22T03:58:27;44.16;36.44;54.87;;
72415;Laerm;60995;52.154;4.498;2023-11-22T04:00:43;43.08;36.29;51.98;;
72415;Laerm;60995;52.154;4.498;2023-11-22T04:02:59;40.84;35.19;50.38;;
72415;Laerm;60995;52.154;4.498;2023-11-22T04:05:17;41.20;35.94;50.87;;
72415;Laerm;60995;52.154;4.498;2023-11-22T04:07:35;43.19;36.37;57.81;;
72415;Laerm;60995;52.154;4.498;2023-11-22T04:09:55;45.39;38.75;66.01;;
72415;Laerm;60995;52.154;4.498;2023-11-22T04:12:11;44.56;38.60;60.26;;
72415;Laerm;60995;52.154;4.498;2023-11-22T04:14:28;45.95;38.77;62.34;;
72415;Laerm;60995;52.154;4.498;2023-11-22T04:16:44;45.16;38.61;55.81;;
72415;Laerm;60995;52.154;4.498;2023-11-22T04:19:00;43.91;39.12;54.32;;
72415;Laerm;60995;52.154;4.498;2023-11-22T04:21:17;45.56;40.05;56.09;;
72415;Laerm;60995;52.154;4.498;2023-11-22T04:23:33;44.07;39.78;54.97;;
72415;Laerm;60995;52.154;4.498;2023-11-22T04:25:50;44.30;38.73;52.58;;
72415;Laerm;60995;52.154;4.498;2023-11-22T04:28:06;44.07;38.56;53.68;;
72415;Laerm;60995;52.154;4.498;2023-11-22T04:30:24;45.25;39.13;61.58;;
72415;Laerm;60995;52.154;4.498;2023-11-22T04:32:41;44.72;39.49;53.23;;
72415;Laerm;60995;52.154;4.498;2023-11-22T04:35:00;44.93;39.88;55.01;;
72415;Laerm;60995;52.154;4.498;2023-11-22T04:37:17;47.34;40.72;53.61;;
72415;Laerm;60995;52.154;4.498;2023-11-22T04:39:33;49.17;43.55;59.30;;
72415;Laerm;60995;52.154;4.498;2023-11-22T04:41:50;50.14;44.30;56.35;;
72415;Laerm;60995;52.154;4.498;2023-11-22T04:44:07;50.59;46.12;57.75;;
72415;Laerm;60995;52.154;4.498;2023-11-22T04:46:23;51.00;45.20;56.70;;
72415;Laerm;60995;52.154;4.498;2023-11-22T04:48:39;51.14;46.11;57.89;;
72415;Laerm;60995;52.154;4.498;2023-11-22T04:50:56;50.30;44.70;55.83;;
72415;Laerm;60995;52.154;4.498;2023-11-22T04:53:12;51.54;46.48;57.05;;
72415;Laerm;60995;52.154;4.498;2023-11-22T04:55:29;51.71;46.11;57.90;;
72415;Laerm;60995;52.154;4.498;2023-11-22T04:57:47;50.38;44.92;56.19;;
72415;Laerm;60995;52.154;4.498;2023-11-22T05:00:04;51.22;45.89;58.44;;
72415;Laerm;60995;52.154;4.498;2023-11-22T05:02:23;51.34;46.49;59.82;;
72415;Laerm;60995;52.154;4.498;2023-11-22T05:04:39;50.68;45.46;59.68;;
72415;Laerm;60995;52.154;4.498;2023-11-22T05:06:55;50.02;44.40;58.34;;
72415;Laerm;60995;52.154;4.498;2023-11-22T05:09:12;50.90;46.00;58.61;;
72415;Laerm;60995;52.154;4.498;2023-11-22T05:11:29;50.52;45.38;55.40;;
72415;Laerm;60995;52.154;4.498;2023-11-22T05:13:45;50.65;45.56;55.82;;
72415;Laerm;60995;52.154;4.498;2023-11-22T05:16:02;48.89;43.90;62.62;;
72415;Laerm;60995;52.154;4.498;2023-11-22T05:18:19;48.74;43.25;55.35;;
72415;Laerm;60995;52.154;4.498;2023-11-22T05:20:35;48.19;42.48;56.19;;
72415;Laerm;60995;52.154;4.498;2023-11-22T05:22:51;49.25;43.91;54.52;;
72415;Laerm;60995;52.154;4.498;2023-11-22T05:25:08;51.05;45.17;59.25;;
72415;Laerm;60995;52.154;4.498;2023-11-22T05:27:24;51.17;45.86;57.27;;
72415;Laerm;60995;52.154;4.498;2023-11-22T05:29:41;51.34;46.69;59.62;;
72415;Laerm;60995;52.154;4.498;2023-11-22T05:31:57;51.60;46.64;58.98;;
72415;Laerm;60995;52.154;4.498;2023-11-22T05:34:13;51.98;45.48;58.79;;
72415;Laerm;60995;52.154;4.498;2023-11-22T05:36:29;53.63;46.95;62.56;;
72415;Laerm;60995;52.154;4.498;2023-11-22T05:38:45;51.75;46.70;57.37;;
72415;Laerm;60995;52.154;4.498;2023-11-22T05:41:02;52.42;47.36;57.19;;
72415;Laerm;60995;52.154;4.498;2023-11-22T05:43:18;53.51;48.21;59.80;;
72415;Laerm;60995;52.154;4.498;2023-11-22T05:45:39;52.23;46.33;58.12;;
72415;Laerm;60995;52.154;4.498;2023-11-22T05:47:56;53.11;47.41;59.17;;
72415;Laerm;60995;52.154;4.498;2023-11-22T05:50:12;51.98;46.44;57.29;;
72415;Laerm;60995;52.154;4.498;2023-11-22T05:52:29;52.08;46.44;60.23;;
72415;Laerm;60995;52.154;4.498;2023-11-22T05:54:45;52.53;46.60;60.61;;
72415;Laerm;60995;52.154;4.498;2023-11-22T05:57:03;52.72;46.36;59.25;;
72415;Laerm;60995;52.154;4.498;2023-11-22T05:59:20;53.56;48.56;62.51;;
72415;Laerm;60995;52.154;4.498;2023-11-22T06:01:36;53.78;48.38;60.96;;
72415;Laerm;60995;52.154;4.498;2023-11-22T06:03:53;53.46;47.75;62.27;;
72415;Laerm;60995;52.154;4.498;2023-11-22T06:06:09;52.76;47.10;60.11;;
72415;Laerm;60995;52.154;4.498;2023-11-22T06:08:25;51.43;46.26;56.96;;
72415;Laerm;60995;52.154;4.498;2023-11-22T06:10:42;50.45;45.47;55.02;;
72415;Laerm;60995;52.154;4.498;2023-11-22T06:12:58;49.98;44.62;55.92;;
72415;Laerm;60995;52.154;4.498;2023-11-22T06:15:14;51.04;46.37;56.55;;
72415;Laerm;60995;52.154;4.498;2023-11-22T06:17:30;51.50;45.12;58.07;;
72415;Laerm;60995;52.154;4.498;2023-11-22T06:19:47;49.39;43.75;55.86;;
72415;Laerm;60995;52.154;4.498;2023-11-22T06:22:03;49.72;43.11;57.67;;
72415;Laerm;60995;52.154;4.498;2023-11-22T06:24:20;48.55;43.81;55.07;;
72415;Laerm;60995;52.154;4.498;2023-11-22T06:26:36;50.69;44.44;57.86;;
72415;Laerm;60995;52.154;4.498;2023-11-22T06:28:55;51.75;45.54;63.49;;
72415;Laerm;60995;52.154;4.498;2023-11-22T06:31:12;50.13;44.06;60.97;;
72415;Laerm;60995;52.154;4.498;2023-11-22T06:33:29;52.68;46.91;67.34;;
72415;Laerm;60995;52.154;4.498;2023-11-22T06:35:45;53.31;47.64;66.13;;
72415;Laerm;60995;52.154;4.498;2023-11-22T06:38:03;52.28;47.64;57.24;;
72415;Laerm;60995;52.154;4.498;2023-11-22T06:40:19;53.34;47.36;60.07;;
72415;Laerm;60995;52.154;4.498;2023-11-22T06:42:40;53.40;48.00;58.76;;
72415;Laerm;60995;52.154;4.498;2023-11-22T06:44:59;54.05;48.70;61.31;;
72415;Laerm;60995;52.154;4.498;2023-11-22T06:47:16;53.97;48.23;61.72;;
72415;Laerm;60995;52.154;4.498;2023-11-22T06:49:33;53.82;48.70;64.37;;
72415;Laerm;60995;52.154;4.498;2023-11-22T06:51:49;54.19;49.55;60.55;;
72415;Laerm;60995;52.154;4.498;2023-11-22T06:54:06;54.05;48.13;63.89;;
72415;Laerm;60995;52.154;4.498;2023-11-22T06:56:22;54.37;49.07;66.49;;
72415;Laerm;60995;52.154;4.498;2023-11-22T06:58:39;54.68;48.23;73.32;;
72415;Laerm;60995;52.154;4.498;2023-11-22T07:00:55;54.70;49.95;59.30;;
72415;Laerm;60995;52.154;4.498;2023-11-22T07:03:11;55.13;49.22;69.36;;
72415;Laerm;60995;52.154;4.498;2023-11-22T07:05:28;55.38;49.98;64.59;;
72415;Laerm;60995;52.154;4.498;2023-11-22T07:07:46;55.51;50.78;62.65;;
72415;Laerm;60995;52.154;4.498;2023-11-22T07:10:05;54.74;50.06;59.17;;
72415;Laerm;60995;52.154;4.498;2023-11-22T07:12:21;54.28;48.68;58.95;;
72415;Laerm;60995;52.154;4.498;2023-11-22T07:14:38;55.61;49.35;63.66;;
72415;Laerm;60995;52.154;4.498;2023-11-22T07:16:54;54.53;48.84;61.93;;
72415;Laerm;60995;52.154;4.498;2023-11-22T07:19:13;55.55;50.07;61.06;;
72415;Laerm;60995;52.154;4.498;2023-11-22T07:21:29;54.96;50.46;61.52;;
72415;Laerm;60995;52.154;4.498;2023-11-22T07:23:48;54.93;49.97;60.52;;
72415;Laerm;60995;52.154;4.498;2023-11-22T07:26:04;54.10;48.85;60.52;;
72415;Laerm;60995;52.154;4.498;2023-11-22T07:28:22;54.12;49.72;58.96;;
72415;Laerm;60995;52.154;4.498;2023-11-22T07:30:38;54.13;48.97;63.03;;
72415;Laerm;60995;52.154;4.498;2023-11-22T07:32:57;53.39;47.53;60.86;;
72415;Laerm;60995;52.154;4.498;2023-11-22T07:35:15;53.44;47.95;64.12;;
72415;Laerm;60995;52.154;4.498;2023-11-22T07:37:31;53.16;48.10;58.52;;
72415;Laerm;60995;52.154;4.498;2023-11-22T07:39:47;53.09;47.18;65.75;;
72415;Laerm;60995;52.154;4.498;2023-11-22T07:42:05;52.82;47.25;62.85;;
72415;Laerm;60995;52.154;4.498;2023-11-22T07:44:25;52.34;46.55;65.13;;
72415;Laerm;60995;52.154;4.498;2023-11-22T07:46:42;53.82;47.51;64.28;;
72415;Laerm;60995;52.154;4.498;2023-11-22T07:48:59;52.67;47.08;64.98;;
72415;Laerm;60995;52.154;4.498;2023-11-22T07:51:16;54.09;48.75;64.56;;
72415;Laerm;60995;52.154;4.498;2023-11-22T07:53:33;54.52;47.68;64.75;;
72415;Laerm;60995;52.154;4.498;2023-11-22T07:55:50;54.46;48.95;63.21;;
72415;Laerm;60995;52.154;4.498;2023-11-22T07:58:08;54.03;48.84;60.89;;
72415;Laerm;60995;52.154;4.498;2023-11-22T08:00:24;54.02;49.27;62.30;;
72415;Laerm;60995;52.154;4.498;2023-11-22T08:02:41;52.80;47.24;60.46;;
72415;Laerm;60995;52.154;4.498;2023-11-22T08:04:59;52.61;46.49;62.86;;
72415;Laerm;60995;52.154;4.498;2023-11-22T08:07:17;52.05;46.29;61.24;;
72415;Laerm;60995;52.154;4.498;2023-11-22T08:09:34;52.58;47.14;68.20;;
72415;Laerm;60995;52.154;4.498;2023-11-22T08:11:50;51.75;47.31;56.83;;
72415;Laerm;60995;52.154;4.498;2023-11-22T08:14:07;52.46;47.46;61.13;;
72415;Laerm;60995;52.154;4.498;2023-11-22T08:16:26;52.16;47.02;59.23;;
72415;Laerm;60995;52.154;4.498;2023-11-22T08:18:43;52.73;46.57;59.81;;
72415;Laerm;60995;52.154;4.498;2023-11-22T08:20:59;54.69;48.91;60.11;;
72415;Laerm;60995;52.154;4.498;2023-11-22T08:23:15;53.65;48.42;59.56;;
72415;Laerm;60995;52.154;4.498;2023-11-22T08:25:31;53.65;48.79;60.53;;
72415;Laerm;60995;52.154;4.498;2023-11-22T08:27:48;52.95;47.11;60.45;;
72415;Laerm;60995;52.154;4.498;2023-11-22T08:30:07;52.78;47.21;61.64;;
72415;Laerm;60995;52.154;4.498;2023-11-22T08:32:28;53.56;48.67;60.55;;
72415;Laerm;60995;52.154;4.498;2023-11-22T08:34:47;53.54;48.31;60.69;;
72415;Laerm;60995;52.154;4.498;2023-11-22T08:37:03;53.29;48.09;61.27;;
72415;Laerm;60995;52.154;4.498;2023-11-22T08:39:19;53.60;47.78;64.47;;
72415;Laerm;60995;52.154;4.498;2023-11-22T08:41:35;53.67;47.85;59.16;;
72415;Laerm;60995;52.154;4.498;2023-11-22T08:43:52;53.80;48.62;60.70;;
72415;Laerm;60995;52.154;4.498;2023-11-22T08:46:08;53.85;48.55;61.52;;
72415;Laerm;60995;52.154;4.498;2023-11-22T08:48:25;53.49;47.95;63.69;;
72415;Laerm;60995;52.154;4.498;2023-11-22T08:50:42;53.29;48.12;58.75;;
72415;Laerm;60995;52.154;4.498;2023-11-22T08:53:00;54.70;49.03;61.49;;
72415;Laerm;60995;52.154;4.498;2023-11-22T08:55:16;53.76;49.16;61.73;;
72415;Laerm;60995;52.154;4.498;2023-11-22T08:57:36;53.78;49.20;60.22;;
72415;Laerm;60995;52.154;4.498;2023-11-22T08:59:56;53.54;48.50;60.51;;
72415;Laerm;60995;52.154;4.498;2023-11-22T09:02:15;54.44;47.58;70.80;;
72415;Laerm;60995;52.154;4.498;2023-11-22T09:04:31;53.18;45.10;76.80;;
72415;Laerm;60995;52.154;4.498;2023-11-22T09:06:47;52.40;45.86;67.22;;
72415;Laerm;60995;52.154;4.498;2023-11-22T09:09:04;51.24;45.22;58.61;;
72415;Laerm;60995;52.154;4.498;2023-11-22T09:11:21;50.37;43.70;61.77;;
72415;Laerm;60995;52.154;4.498;2023-11-22T09:13:38;51.59;44.72;66.80;;
72415;Laerm;60995;52.154;4.498;2023-11-22T09:15:56;52.07;46.17;73.34;;
72415;Laerm;60995;52.154;4.498;2023-11-22T09:18:12;53.34;46.54;76.75;;
72415;Laerm;60995;52.154;4.498;2023-11-22T09:20:28;52.82;46.42;70.13;;
72415;Laerm;60995;52.154;4.498;2023-11-22T09:22:47;52.19;44.30;69.44;;
72415;Laerm;60995;52.154;4.498;2023-11-22T09:25:05;52.20;46.25;72.79;;
72415;Laerm;60995;52.154;4.498;2023-11-22T09:27:25;51.26;45.16;58.87;;
72415;Laerm;60995;52.154;4.498;2023-11-22T09:29:41;51.03;45.41;57.00;;
72415;Laerm;60995;52.154;4.498;2023-11-22T09:31:58;51.46;46.23;57.13;;
72415;Laerm;60995;52.154;4.498;2023-11-22T09:34:14;51.14;44.66;67.46;;
72415;Laerm;60995;52.154;4.498;2023-11-22T09:36:31;51.22;42.96;60.32;;
72415;Laerm;60995;52.154;4.498;2023-11-22T09:38:50;50.89;45.72;59.37;;
72415;Laerm;60995;52.154;4.498;2023-11-22T09:41:08;49.86;43.65;56.49;;
72415;Laerm;60995;52.154;4.498;2023-11-22T09:43:25;52.26;45.14;60.49;;
72415;Laerm;60995;52.154;4.498;2023-11-22T09:45:42;50.37;44.18;57.99;;
72415;Laerm;60995;52.154;4.498;2023-11-22T09:47:59;50.68;43.06;62.05;;
72415;Laerm;60995;52.154;4.498;2023-11-22T09:50:40;51.16;43.71;60.91;;
72415;Laerm;60995;52.154;4.498;2023-11-22T09:53:02;50.59;43.77;55.56;;
72415;Laerm;60995;52.154;4.498;2023-11-22T09:55:21;50.07;44.54;58.24;;
72415;Laerm;60995;52.154;4.498;2023-11-22T09:57:42;50.03;43.72;60.41;;
72415;Laerm;60995;52.154;4.498;2023-11-22T09:59:59;50.77;44.86;60.73;;
72415;Laerm;60995;52.154;4.498;2023-11-22T10:02:17;51.45;43.04;64.15;;
72415;Laerm;60995;52.154;4.498;2023-11-22T10:04:33;52.44;46.59;63.09;;
72415;Laerm;60995;52.154;4.498;2023-11-22T10:06:50;51.30;43.64;60.59;;
72415;Laerm;60995;52.154;4.498;2023-11-22T10:09:07;49.09;42.78;54.51;;
72415;Laerm;60995;52.154;4.498;2023-11-22T10:11:23;50.31;43.78;63.44;;
72415;Laerm;60995;52.154;4.498;2023-11-22T10:13:40;52.31;47.41;62.01;;
72415;Laerm;60995;52.154;4.498;2023-11-22T10:16:09;52.09;43.18;59.83;;
72415;Laerm;60995;52.154;4.498;2023-11-22T10:18:28;50.78;43.92;69.45;;
72415;Laerm;60995;52.154;4.498;2023-11-22T10:20:48;49.79;43.20;57.21;;
72415;Laerm;60995;52.154;4.498;2023-11-22T10:23:13;51.66;46.14;57.91;;
72415;Laerm;60995;52.154;4.498;2023-11-22T10:25:30;51.71;45.54;69.68;;
72415;Laerm;60995;52.154;4.498;2023-11-22T10:27:48;51.32;44.65;63.62;;
72415;Laerm;60995;52.154;4.498;2023-11-22T10:30:08;53.26;44.91;67.50;;
72415;Laerm;60995;52.154;4.498;2023-11-22T10:32:25;52.63;44.97;60.89;;
72415;Laerm;60995;52.154;4.498;2023-11-22T10:34:42;51.33;46.30;65.55;;
72415;Laerm;60995;52.154;4.498;2023-11-22T10:36:58;49.41;42.93;63.40;;
72415;Laerm;60995;52.154;4.498;2023-11-22T10:39:21;50.41;44.42;63.58;;
72415;Laerm;60995;52.154;4.498;2023-11-22T10:41:37;52.44;45.83;68.79;;
72415;Laerm;60995;52.154;4.498;2023-11-22T10:43:54;50.52;45.66;58.41;;
72415;Laerm;60995;52.154;4.498;2023-11-22T10:46:13;51.30;45.69;58.26;;
72415;Laerm;60995;52.154;4.498;2023-11-22T10:48:29;52.22;45.05;66.15;;
72415;Laerm;60995;52.154;4.498;2023-11-22T10:50:47;50.68;44.42;56.44;;
72415;Laerm;60995;52.154;4.498;2023-11-22T10:53:07;50.49;45.40;55.93;;
72415;Laerm;60995;52.154;4.498;2023-11-22T10:55:32;50.17;44.56;59.52;;
72415;Laerm;60995;52.154;4.498;2023-11-22T10:57:51;51.28;45.25;57.63;;
72415;Laerm;60995;52.154;4.498;2023-11-22T11:00:09;50.74;45.46;68.69;;
72415;Laerm;60995;52.154;4.498;2023-11-22T11:02:31;51.82;45.20;59.50;;
72415;Laerm;60995;52.154;4.498;2023-11-22T11:04:59;51.07;45.64;56.94;;
72415;Laerm;60995;52.154;4.498;2023-11-22T11:07:21;50.82;44.82;57.49;;
72415;Laerm;60995;52.154;4.498;2023-11-22T11:09:45;51.05;43.75;63.96;;
72415;Laerm;60995;52.154;4.498;2023-11-22T11:12:02;51.79;44.82;60.39;;
72415;Laerm;60995;52.154;4.498;2023-11-22T11:14:20;54.16;47.14;71.82;;
72415;Laerm;60995;52.154;4.498;2023-11-22T11:16:39;53.33;47.83;63.60;;
72415;Laerm;60995;52.154;4.498;2023-11-22T11:19:05;51.96;45.89;79.27;;
72415;Laerm;60995;52.154;4.498;2023-11-22T11:21:26;50.46;43.26;59.98;;
72415;Laerm;60995;52.154;4.498;2023-11-22T11:23:43;51.48;43.52;63.73;;
72415;Laerm;60995;52.154;4.498;2023-11-22T11:26:19;50.99;44.46;60.64;;
72415;Laerm;60995;52.154;4.498;2023-11-22T11:28:47;50.63;44.78;59.08;;
72415;Laerm;60995;52.154;4.498;2023-11-22T11:31:06;52.14;44.58;69.61;;
72415;Laerm;60995;52.154;4.498;2023-11-22T11:36:07;56.88;45.20;74.90;;
72415;Laerm;60995;52.154;4.498;2023-11-22T11:38:31;50.75;44.83;71.25;;
72415;Laerm;60995;52.154;4.498;2023-11-22T11:40:49;48.96;43.86;61.54;;
72415;Laerm;60995;52.154;4.498;2023-11-22T11:43:06;50.62;43.43;74.31;;
72415;Laerm;60995;52.154;4.498;2023-11-22T11:45:23;51.00;45.34;64.16;;
72415;Laerm;60995;52.154;4.498;2023-11-22T11:47:39;51.22;43.77;68.34;;
72415;Laerm;60995;52.154;4.498;2023-11-22T11:49:56;51.41;45.72;71.42;;
72415;Laerm;60995;52.154;4.498;2023-11-22T11:52:12;50.75;44.20;64.09;;
72415;Laerm;60995;52.154;4.498;2023-11-22T11:54:28;51.55;45.72;73.18;;
72415;Laerm;60995;52.154;4.498;2023-11-22T11:56:45;49.86;44.21;58.50;;
72415;Laerm;60995;52.154;4.498;2023-11-22T11:59:02;51.02;44.97;68.47;;
72415;Laerm;60995;52.154;4.498;2023-11-22T12:01:19;51.44;46.42;59.85;;
72415;Laerm;60995;52.154;4.498;2023-11-22T12:03:38;51.45;45.52;73.77;;
72415;Laerm;60995;52.154;4.498;2023-11-22T12:05:56;52.69;45.89;73.95;;
72415;Laerm;60995;52.154;4.498;2023-11-22T12:08:13;51.98;45.70;74.43;;
72415;Laerm;60995;52.154;4.498;2023-11-22T12:10:33;52.63;45.02;76.42;;
72415;Laerm;60995;52.154;4.498;2023-11-22T12:12:50;52.30;45.34;73.02;;
72415;Laerm;60995;52.154;4.498;2023-11-22T12:15:08;51.55;45.34;72.24;;
72415;Laerm;60995;52.154;4.498;2023-11-22T12:17:26;51.17;44.73;58.29;;
72415;Laerm;60995;52.154;4.498;2023-11-22T12:19:47;51.29;44.76;68.14;;
72415;Laerm;60995;52.154;4.498;2023-11-22T12:22:05;52.10;47.09;60.29;;
72415;Laerm;60995;52.154;4.498;2023-11-22T12:24:24;53.52;46.45;65.07;;
72415;Laerm;60995;52.154;4.498;2023-11-22T12:26:47;50.54;45.51;58.60;;
72415;Laerm;60995;52.154;4.498;2023-11-22T12:29:07;52.12;46.35;62.50;;
72415;Laerm;60995;52.154;4.498;2023-11-22T12:31:25;50.31;45.29;56.03;;
72415;Laerm;60995;52.154;4.498;2023-11-22T12:33:45;51.32;45.48;58.36;;
72415;Laerm;60995;52.154;4.498;2023-11-22T12:36:04;51.19;47.19;56.21;;
72415;Laerm;60995;52.154;4.498;2023-11-22T12:38:23;50.85;45.67;59.49;;
72415;Laerm;60995;52.154;4.498;2023-11-22T12:40:46;51.49;45.84;63.28;;
72415;Laerm;60995;52.154;4.498;2023-11-22T12:43:05;50.80;45.02;58.41;;
72415;Laerm;60995;52.154;4.498;2023-11-22T12:45:24;51.84;45.08;59.82;;
72415;Laerm;60995;52.154;4.498;2023-11-22T12:47:41;50.87;45.04;57.57;;
72415;Laerm;60995;52.154;4.498;2023-11-22T12:49:58;50.91;45.13;57.58;;
72415;Laerm;60995;52.154;4.498;2023-11-22T12:52:14;51.88;44.01;59.86;;